Campo, CO

3:44 PM MST on February 26, 2017 (GMT -0700)
Farm | | Change Station
Active Advisory: Fire Weather Watch

Elev 4344 ft 37.13 °N, 102.47 °W | Updated 7 seconds ago

Partly Cloudy
Partly Cloudy
49.2 °F
Feels Like 43 °F
N
16.0
Wind Variable Wind from ESE

Today
High -- | Low -- °F
--% Chance of Precip.
Yesterday
High -- | Low -- °F
Precip. -- in
Pressure 29.72 in
Visibility 10.0 miles
Clouds Mostly Cloudy 11000 ft
Windchill 43 °F
Dew Point 6 °F
Humidity 17%
Rainfall 0.00 in
Snow Depth Not available.
6:24 AM 5:41 PM
New Moon, 0% visible
METAR KCAO 262155Z AUTO 24018G24KT 10SM BKN110 12/M17 A2975 RMK AO2 PK WND 24029/2132 SLP063 T01221167
Pressure 29.72 in
Visibility 10.0 miles
Clouds Mostly Cloudy 11000 ft
Windchill 43 °F
Dew Point 6 °F
Humidity 17%
Rainfall 0.00 in
Snow Depth Not available.
6:24 AM 5:41 PM
New Moon, 0% visible
METAR KCAO 262155Z AUTO 24018G24KT 10SM BKN110 12/M17 A2975 RMK AO2 PK WND 24029/2132 SLP063 T01221167

Get Your Daily Forecast Email!

Thanks for signing up!

Be on the lookout for a verification email in your inbox.

You'll start receiving the daily forecast at 8 AM.

×

10-Day Weather Forecast

Almanac

Astronomy

Feb. 26, 2017 Rise Set
Actual Time
Civil Twilight
Nautical Twilight
Astronomical Twilight
Moon
Length of Visible Light
Length of Day
Tomorrow will be .
, % of the Moon is Illuminated

Today's Extremes

State Highs State Lows

Community

WunderPhotos

Upload Photos

1,962,540 photos uploaded!

WunderBlog® & News

Nearby

Air Quality

  Air Quality AQ Index Pollutant
Not available.

Snow Depth

Station Depth Elevation

Earthquake Activity

City Distance Mag. Time & Date
Minimum magnitude displayed is 2.5.

Coastal Water Temperatures

Place Temperature

Stations

Nearby Weather Stations

Station Location Temp. Windchill Dew Point Humidity Wind Precip. Elev Updated Type
                   

Watches & Warnings

Fire Weather Watch
Issued: 3:35 PM MST Feb. 26, 2017 – National Weather Service

... Fire Weather Watch in effect Monday afternoon for gusty winds
and low relative humidity for fire weather zones 226... 227...
228... 229... 230... 231... 232... 233... 234... 235... 236 and 237...

The National Weather Service in Pueblo has issued a Fire Weather
Watch for gusty winds and low relative humidity, which is in
effect Monday afternoon.

* Affected area... fire weather zones 226... 227... 228... 229...
230... 231... 232... 233... 234... 235... 236 and 237.

* Winds... southwest 15 to 25 gusting to 45 mph.

* Relative humidity... as low as 14 percent.

* Impacts... conditions will be favorable for the rapid ignition,
growth and spread of fires.

Precautionary/preparedness actions...

A Fire Weather Watch means that critical fire weather conditions
have a good chance of occurring. Listen for later forecasts and
possible red flag warnings. Be prepared to postpone outdoor
burning or any other activities that could accidentally start a
wildfire.